Final Results

Pos Bib Name Time ± Group
1. 165 Daniel Sullivan 00:18:36.7 00:00:00.0 Overall 5k Male
2. 181 Drew Blake 00:19:22.9 00:00:46.2 Run 30-34 Male
3. 128 Noah Harrington 00:19:49.5 00:01:12.8 Run 14-19 Male
4. 127 Hal Harrington 00:22:28.8 00:03:52.1 Masters 5k Male
5. 189 Donald Miller 00:22:41.8 00:04:05.1 Grandmasters 5k Male
6. 156 Dewey Scarbrough 00:23:05.0 00:04:28.3 Run 45-49 Male
7. 102 Nestor Raul Anzola 00:23:16.0 00:04:39.3 Run 55-59 Male
8. 163 Adam Snider 00:23:17.7 00:04:41.0 Run 25-29 Male
9. 153 Todd Pohnert 00:23:51.0 00:05:14.3 Run 45-49 Male
10. 144 Sam Marlowe 00:24:02.0 00:05:25.3 Run 20-24 Male
11. 126 Brett Haddox 00:24:17.9 00:05:41.2 Run 40-44 Male
12. 178 David Ruffin 00:25:23.4 00:06:46.7 Run 55-59 Male
13. 101 Gerardo Alvarado 00:25:24.9 00:06:48.2 Run 40-44 Male
14. 173 Jason Wade 00:25:26.2 00:06:49.5 Run 45-49 Male
15. 124 Allen Graham 00:25:42.8 00:07:06.1 Run 35-39 Male
16. 167 Pam Sumrall 00:25:50.3 00:07:13.6 Overall 5k Female
17. 192 Dorothy Stewart 00:26:04.4 00:07:27.7 Masters 5k Female
18. 158 David Schoenfeld 00:26:08.3 00:07:31.6 Run 65-69 Male
19. 154 Lacey Saul 00:26:24.3 00:07:47.6 Run 35-39 Female
20. 138 Joseph Jones 00:26:27.0 00:07:50.3 Run 30-34 Male
21. 131 Michelle Hatton 00:26:38.7 00:08:02.0 Grandmasters 5k Female
22. 117 Tatum Davis 00:26:43.8 00:08:07.1 Run 35-39 Female
23. 119 David Dill 00:27:01.8 00:08:25.1 Run 60-64 Male
24. 599 Ronnie Bolling 00:27:04.2 00:08:27.5 2 Mile Walk Male
25. 184 Joey Williams 00:27:05.4 00:08:28.7 Run 45-49 Male
26. 134 Liliana Hernandez 00:27:09.7 00:08:33.0 Run 50-54 Female
27. 157 Forest Scarbrough 00:27:12.7 00:08:36.0 Run 45-49 Male
28. 579 Cindy Devereaux 00:27:30.5 00:08:53.8 2 Mile Walk Female
29. 580 Jody Devereaux 00:27:31.5 00:08:54.8 2 Mile Walk Male
30. 586 Lydia Harrington 00:27:36.7 00:09:00.0 2 Mile Walk Female
31. 573 Teresa Breland 00:27:37.3 00:09:00.6 2 Mile Walk Female
32. 125 Gavin Guy 00:27:37.7 00:09:01.0 Run 50-54 Male
33. 152 Skylar Nicholson 00:27:40.0 00:09:03.3 Run 25-29 Female
34. 164 Paige Strickland 00:27:47.7 00:09:11.0 Run 55-59 Female
35. 110 Stephen Caldwell 00:28:06.0 00:09:29.3 Run 35-39 Male
36. 141 Brittney Kitchens 00:28:10.8 00:09:34.1 Run 30-34 Female
37. 168 Adriane Tarver 00:28:27.3 00:09:50.6 Run 45-49 Female
38. 190 Valerie Wilson 00:28:30.0 00:09:53.3 2 Mile Walk Female
39. 112 Deleica Clayton 00:28:39.1 00:10:02.4 Run 55-59 Female
40. 187 Ag Mcswaine Jr 00:29:17.0 00:10:40.3 2 Mile Walk Male
41. 577 Leza Cooley 00:29:23.3 00:10:46.6 2 Mile Walk Female
42. 172 Candy Voss 00:29:28.2 00:10:51.5 2 Mile Walk Female
43. 186 Casey Schwingle 00:29:28.6 00:10:51.9 2 Mile Walk Female
44. 166 Jack Sullivan Iii 00:29:40.8 00:11:04.1 Run 14-19 Male
45. 182 Lisa Ruffin 00:29:42.0 00:11:05.3 2 Mile Walk Female
46. 147 Janet Miller 00:29:48.8 00:11:12.1 Run 50-54 Female
47. 183 Patsy Sledge 00:29:49.8 00:11:13.1 2 Mile Walk Female
48. 600 Tara Bolling 00:29:50.7 00:11:14.0 2 Mile Walk Female
49. 589 Diane Meece 00:29:55.0 00:11:18.3 2 Mile Walk Female
50. 142 Jeff Lambert 00:29:59.4 00:11:22.7 Run 40-44 Male
51. 159 Nicki Scott 00:30:00.5 00:11:23.8 Run 45-49 Female
52. 576 Garrett Cooley 00:30:26.8 00:11:50.1 2 Mile Walk Male
53. 574 Steve Clyburn 00:30:27.1 00:11:50.4 2 Mile Walk Male
54. 191 Matt Lane 00:30:29.6 00:11:52.9 Run 30-34 Male
55. 180 Maci Mcmichael 00:30:34.8 00:11:58.1 Run 0-13 Female
56. 591 John Moore 00:30:41.3 00:12:04.6 2 Mile Walk Male
57. 113 Janis Cook 00:30:57.5 00:12:20.8 Run 60-64 Female
58. 123 Jennifer Goldman 00:30:59.1 00:12:22.4 Run 35-39 Female
59. 581 Teresa Garcia 00:31:08.0 00:12:31.3 2 Mile Walk Female
60. 578 Trisha Daughdrill 00:31:08.4 00:12:31.7 2 Mile Walk Female
61. 129 Anna Harrison 00:31:11.5 00:12:34.8 Run 30-34 Female
62. 598 Sabrina Rutland 00:31:16.5 00:12:39.8 2 Mile Walk Female
63. 594 Elaine Temple 00:31:18.6 00:12:41.9 2 Mile Walk Female
64. 587 Tiffany Harrington 00:31:23.2 00:12:46.5 2 Mile Walk Female
65. 135 Matthew Hiatt 00:31:31.2 00:12:54.5 Run 50-54 Male
66. 170 Aubrey Temple 00:31:44.5 00:13:07.8 Run 35-39 Female
67. 106 Finley Kate Brown 00:31:49.1 00:13:12.4 Run 0-13 Female
68. 105 Cory Brown 00:31:49.5 00:13:12.8 Run 40-44 Male
69. 118 Michelle Dickerson 00:31:57.4 00:13:20.7 Run 50-54 Female
70. 188 Matt Langford 00:32:24.7 00:13:48.0 Run 35-39 Male
71. 145 Joshua Mckinley 00:32:32.6 00:13:55.9 Run 0-13 Male
72. 111 Brenda Childress 00:32:38.6 00:14:01.9 Run 50-54 Female
73. 597 Rex Witsell 00:32:46.2 00:14:09.5 2 Mile Walk Male
74. 107 Jeffrey Byrd 00:32:55.7 00:14:19.0 Run 55-59 Male
75. 175 Becky West 00:32:57.5 00:14:20.8 Run 60-64 Female
76. 595 David Trim 00:33:34.3 00:14:57.6 2 Mile Walk Male
T77. 575 Nadine Coleman 00:33:46.1 00:15:09.4 2 Mile Walk Female
T77. 582 Jack Gay 00:33:46.1 00:15:09.4 2 Mile Walk Male
79. 169 Julie Teater 00:33:48.6 00:15:11.9 Run 55-59 Female
T80. 132 Chrissie Hendrix 00:33:56.4 00:15:19.7 Run 40-44 Female
T80. 133 Randel Hendrix 00:33:56.4 00:15:19.7 Run 40-44 Male
82. 149 Signe Mooney 00:33:58.7 00:15:22.0 Run 55-59 Female
83. 121 Tony Ducker 00:34:03.3 00:15:26.6 Run 50-54 Male
84. 114 Nicole Cooley 00:34:12.9 00:15:36.2 Run 30-34 Female
85. 592 Madeline Short 00:34:21.1 00:15:44.4 2 Mile Walk Female
86. 593 Miranda Short 00:34:30.2 00:15:53.5 2 Mile Walk Female
87. 174 William Wall 00:34:33.8 00:15:57.1 Run 45-49 Male
88. 177 Bo Worley 00:34:34.6 00:15:57.9 Run 50-54 Male
89. 148 Meghan Miller 00:34:45.1 00:16:08.4 Run 35-39 Female
90. 108 Stacey Byrd 00:34:58.8 00:16:22.1 Run 45-49 Female
91. 150 Jim Murdock 00:35:00.2 00:16:23.5 Run 65-69 Male
92. 146 Sue Mckinley 00:36:31.0 00:17:54.3 Run 50-54 Female
93. 139 Renea Kane 00:36:43.6 00:18:06.9 Run 50-54 Female
94. 137 Misty Hood 00:37:32.3 00:18:55.6 Run 40-44 Female
95. 155 Charlene Scarbrough 00:37:48.0 00:19:11.3 Run 50-54 Female
96. 162 Tanner Smith 00:37:48.3 00:19:11.6 Run 20-24 Female
97. 109 Christy Caldwell 00:38:14.8 00:19:38.1 Run 40-44 Female
98. 140 Lee Kinabrew 00:40:10.7 00:21:34.0 Run 40-44 Male
99. 115 Dana Crawford 00:41:13.8 00:22:37.1 Run 35-39 Female
100. 116 Michael Crawford 00:41:14.5 00:22:37.8 Run 30-34 Male
101. 122 Laurie Gardner 00:41:31.0 00:22:54.3 Run 55-59 Female
102. 171 Daniel Utterback 00:43:12.9 00:24:36.2 Run 35-39 Male
103. 136 Mi Hoang 00:43:13.8 00:24:37.1 Run 30-34 Female
T104. 585 Sophie Graham 00:43:20.6 00:24:43.9 2 Mile Walk Female
T105. 583 Bailee Graham 00:43:20.6 00:24:43.9 2 Mile Walk Female
T105. 185 Lilyanah Kelly 00:43:20.6 00:24:43.9 2 Mile Walk Female
107. 143 Jabbaar Madyun 00:45:46.4 00:27:09.7 Run 55-59 Male
108. 584 Molly Graham 00:46:13.5 00:27:36.8 2 Mile Walk Female
109. 590 Carmin Mizell 00:46:14.6 00:27:37.9 2 Mile Walk Female
110. 588 Debbie Lott 00:46:16.1 00:27:39.4 2 Mile Walk Female
111. 193 Chae Carter 00:46:51.0 00:28:14.3 Run 30-34 Female
112. 196 Morgan Goodwin 00:46:53.2 00:28:16.5 Run 20-24 Female
113. 195 Elena Windham 00:48:48.1 00:30:11.4 Run 0-13 Female
114. 176 Devon Windham 00:48:50.7 00:30:14.0 Run 25-29 Female
115. 151 Merl Newell 00:49:42.7 00:31:06.0 Run 60-64 Female
116. 104 Jodie Brickson 00:49:51.7 00:31:15.0 Run 50-54 Female
117. 194 Sherri Kelly 00:54:19.9 00:35:43.2 Run 45-49 Female
118. 160 Savannah Seay 00:56:21.1 00:37:44.4 Run 25-29 Female
119. 130 Susan Hartfield 00:56:22.7 00:37:46.0 Run 35-39 Female